Paphos, Cyprus
Current Conditions -  °F | °C
As of 5:30 PM on Wednesday 22 Oct 2014 (Local Time) from LCPH Reporting Station
Scattered Clouds Scattered Clouds  
Wind Chill: 73°   Ceiling: Unl
Heat Index: 73°   Visibility: 6mi
Dew Point: 57°   Wind: 8mph
Humidity: 57%   Direction: 140°SE
Pressure: 29.94"   Gusts: NA
Location:  34.77°N, 32.4°E
Report Text: LCPH 221430Z 14007KT 9999 SCT045 23/14 Q1014
Loading
Personal Weather Stations






























Interactive Weather Map
Tropical Storm Tracking
New forecast layout! Learn more

10-Day Weather Forecast

Advertisements
Track Severe Weather on mobile